Time;durP1;ratioP1;P1;durP2;ratioP2;P2;SDS_P1;SDS_P2;PMS_P1;PMS_P2;Temp;Humidity;BMP_temperature;BMP_pressure;BME280_temperature;BME280_humidity;BME280_pressure;Samples;Min_cycle;Max_cycle;Signal;HPM_P1;HPM_P2
2022/09/26 00:00:16;;;;;;;10.60;4.70;;;;;13.60;95684.00;;;;8397196;28;20694;-77
2022/09/26 00:04:21;;;;;;;5.35;4.65;;;;;13.60;95686.00;;;;8397675;28;20227;-77
2022/09/26 00:08:35;;;;;;;13.10;4.97;;;;;13.60;95673.00;;;;8397205;28;20219;-78
2022/09/26 00:12:40;;;;;;;5.40;4.90;;;;;13.70;95675.00;;;;8396870;28;20662;-78
2022/09/26 00:16:49;;;;;;;5.47;4.53;;;;;13.70;95668.00;;;;8396559;28;20254;-78
2022/09/26 00:21:03;;;;;;;5.93;5.07;;;;;13.80;95670.00;;;;8396556;28;20223;-78
2022/09/26 00:25:19;;;;;;;5.95;4.60;;;;;13.80;95672.00;;;;8395840;28;20227;-77
2022/09/26 00:29:30;;;;;;;5.40;4.75;;;;;13.80;95660.00;;;;8395562;28;20222;-79
2022/09/26 00:33:40;;;;;;;8.43;5.63;;;;;13.80;95658.00;;;;8396304;28;20489;-80
2022/09/26 00:37:50;;;;;;;6.40;5.57;;;;;13.80;95653.00;;;;8396525;28;20654;-80
2022/09/26 00:42:00;;;;;;;8.23;5.60;;;;;13.80;95647.00;;;;8396082;28;20220;-78
2022/09/26 00:46:23;;;;;;;6.95;5.65;;;;;13.80;95647.00;;;;8395393;28;20224;-77
2022/09/26 00:50:29;;;;;;;8.15;5.97;;;;;13.80;95642.00;;;;8395027;28;20218;-78
2022/09/26 00:54:44;;;;;;;10.18;5.90;;;;;13.80;95644.00;;;;8395622;28;20224;-78
2022/09/26 00:58:58;;;;;;;8.13;5.78;;;;;13.80;95634.00;;;;8395332;28;20251;-78
2022/09/26 01:03:09;;;;;;;10.10;6.18;;;;;13.80;95637.00;;;;8395503;28;20645;-78
2022/09/26 01:07:23;;;;;;;10.00;6.15;;;;;13.80;95628.00;;;;8395395;28;20234;-77
2022/09/26 01:11:28;;;;;;;8.70;6.30;;;;;13.80;95629.00;;;;8395227;28;20582;-78
2022/09/26 01:15:38;;;;;;;11.00;6.13;;;;;13.70;95631.00;;;;8393931;28;20545;-77
2022/09/26 01:20:03;;;;;;;10.05;6.40;;;;;13.70;95633.00;;;;8394858;28;20307;-78
2022/09/26 01:24:35;;;;;;;12.40;6.65;;;;;13.60;95628.00;;;;8394415;28;20667;-77
2022/09/26 01:29:12;;;;;;;7.53;5.68;;;;;13.60;95626.00;;;;8394738;28;20270;-77
2022/09/26 01:33:36;;;;;;;9.25;6.32;;;;;13.60;95628.00;;;;8394468;28;20230;-78
2022/09/26 01:37:54;;;;;;;9.25;6.40;;;;;13.60;95620.00;;;;8394032;28;20629;-77
2022/09/26 01:42:13;;;;;;;11.52;6.45;;;;;13.60;95617.00;;;;8395012;28;20221;-77
2022/09/26 01:46:29;;;;;;;7.53;6.28;;;;;13.60;95620.00;;;;8394301;28;20248;-78
2022/09/26 01:50:38;;;;;;;11.02;7.63;;;;;13.60;95635.00;;;;8394606;28;20291;-78
2022/09/26 01:54:54;;;;;;;13.77;6.85;;;;;13.60;95629.00;;;;8379255;28;20652;-76
2022/09/26 01:59:10;;;;;;;18.13;9.65;;;;;13.50;95633.00;;;;8394593;28;20229;-78
2022/09/26 02:03:26;;;;;;;11.18;8.32;;;;;13.50;95628.00;;;;8369357;28;20506;-78
2022/09/26 02:07:42;;;;;;;13.50;8.85;;;;;13.50;95625.00;;;;8394290;28;20648;-78
2022/09/26 02:11:49;;;;;;;13.25;9.30;;;;;13.50;95626.00;;;;8391378;28;20580;-77
2022/09/26 02:16:08;;;;;;;15.48;9.68;;;;;13.40;95625.00;;;;8393018;28;20224;-77
2022/09/26 02:20:15;;;;;;;18.17;10.32;;;;;13.40;95626.00;;;;8394854;28;20218;-77
2022/09/26 02:24:34;;;;;;;20.40;10.27;;;;;13.30;95620.00;;;;8393478;28;20542;-76
2022/09/26 02:28:45;;;;;;;17.80;9.85;;;;;13.30;95616.00;;;;8394629;28;20245;-77
2022/09/26 02:32:54;;;;;;;16.92;8.88;;;;;13.30;95617.00;;;;8393883;28;20220;-77
2022/09/26 02:37:04;;;;;;;18.25;9.10;;;;;13.30;95621.00;;;;8393844;28;20553;-77
2022/09/26 02:41:22;;;;;;;15.77;9.30;;;;;13.30;95624.00;;;;8394179;28;20219;-77
2022/09/26 02:45:40;;;;;;;13.55;8.60;;;;;13.30;95622.00;;;;8392781;28;20234;-77
2022/09/26 02:50:10;;;;;;;13.07;8.40;;;;;13.20;95609.00;;;;8395526;28;20218;-78
2022/09/26 02:54:28;;;;;;;13.75;7.85;;;;;13.20;95613.00;;;;8398981;28;20215;-78
2022/09/26 02:58:41;;;;;;;14.32;7.60;;;;;13.10;95615.00;;;;8399880;28;20278;-77
2022/09/26 03:03:05;;;;;;;14.40;6.97;;;;;13.10;95605.00;;;;8370538;22;20233;-78
2022/09/26 03:07:20;;;;;;;10.23;6.85;;;;;13.10;95605.00;;;;8315666;28;20282;-79
2022/09/26 03:11:32;;;;;;;8.80;6.13;;;;;13.10;95605.00;;;;8320698;28;20328;-77
2022/09/26 03:15:48;;;;;;;12.30;6.30;;;;;13.10;95601.00;;;;8337193;28;20710;-77
2022/09/26 03:20:03;;;;;;;7.63;5.90;;;;;13.00;95593.00;;;;8322674;28;20224;-79
2022/09/26 03:24:13;;;;;;;9.25;5.68;;;;;13.00;95597.00;;;;8320570;28;20232;-78
2022/09/26 03:28:22;;;;;;;9.00;5.65;;;;;12.90;95596.00;;;;8311661;28;20721;-77
2022/09/26 03:32:40;;;;;;;10.27;6.47;;;;;12.90;95600.00;;;;8313481;28;20230;-78
2022/09/26 03:36:44;;;;;;;9.60;6.47;;;;;13.00;95598.00;;;;8304631;28;20224;-78
2022/09/26 03:40:54;;;;;;;11.70;6.38;;;;;13.00;95596.00;;;;8348675;28;20239;-77
2022/09/26 03:45:09;;;;;;;10.50;7.15;;;;;13.00;95593.00;;;;8343617;28;20237;-78
2022/09/26 03:49:20;;;;;;;10.07;6.57;;;;;13.00;95599.00;;;;8313400;28;20223;-78
2022/09/26 03:53:31;;;;;;;8.48;5.93;;;;;13.00;95585.00;;;;8330984;28;20250;-78
2022/09/26 03:57:41;;;;;;;9.07;6.32;;;;;13.00;95581.00;;;;8305141;28;20611;-79
2022/09/26 04:01:44;;;;;;;9.82;6.63;;;;;13.00;95590.00;;;;8337168;28;20288;-79
2022/09/26 04:06:02;;;;;;;9.68;6.13;;;;;13.00;95592.00;;;;8380913;28;20226;-79
2022/09/26 04:10:12;;;;;;;9.35;6.43;;;;;13.00;95583.00;;;;8381028;28;20569;-78
2022/09/26 04:14:22;;;;;;;9.30;5.90;;;;;13.00;95579.00;;;;8385194;28;20224;-79
2022/09/26 04:18:33;;;;;;;14.02;6.35;;;;;13.00;95573.00;;;;8358903;28;20235;-77
2022/09/26 04:22:44;;;;;;;8.15;6.07;;;;;13.00;95569.00;;;;8343693;28;20232;-78
2022/09/26 04:26:48;;;;;;;10.48;6.18;;;;;12.90;95571.00;;;;8352697;28;20227;-78
2022/09/26 04:30:57;;;;;;;11.02;5.97;;;;;13.00;95570.00;;;;8348091;28;20791;-77
2022/09/26 04:35:00;;;;;;;17.50;5.93;;;;;13.00;95565.00;;;;8351279;28;20644;-77
2022/09/26 04:39:12;;;;;;;11.75;6.32;;;;;12.90;95566.00;;;;8344446;28;20286;-77
2022/09/26 04:43:21;;;;;;;13.52;7.00;;;;;13.00;95566.00;;;;8384873;28;20231;-77
2022/09/26 04:47:31;;;;;;;10.55;5.90;;;;;12.90;95569.00;;;;8380281;28;20785;-78
2022/09/26 04:51:40;;;;;;;10.90;6.80;;;;;12.90;95560.00;;;;8331015;28;20237;-78
2022/09/26 04:55:53;;;;;;;9.00;6.75;;;;;12.90;95560.00;;;;8333216;28;20732;-77
2022/09/26 05:00:06;;;;;;;11.32;6.07;;;;;12.80;95565.00;;;;8328437;28;20226;-78
2022/09/26 05:04:22;;;;;;;11.27;6.25;;;;;12.80;95558.00;;;;8296316;28;20290;-77
2022/09/26 05:08:31;;;;;;;13.90;6.78;;;;;12.90;95551.00;;;;8305374;28;20242;-78
2022/09/26 05:12:42;;;;;;;11.70;6.10;;;;;12.90;95550.00;;;;8293791;28;20225;-78
2022/09/26 05:16:52;;;;;;;14.27;6.50;;;;;12.90;95552.00;;;;8312942;28;20907;-78
2022/09/26 05:20:56;;;;;;;11.13;6.25;;;;;12.90;95549.00;;;;8295652;28;20243;-79
2022/09/26 05:29:29;;;;;;;14.30;6.65;;;;;12.90;95552.00;;;;8303212;28;20272;-79
2022/09/26 05:33:38;;;;;;;10.57;5.82;;;;;12.90;95549.00;;;;8315816;28;20225;-77
2022/09/26 05:37:48;;;;;;;8.48;6.35;;;;;12.90;95545.00;;;;8323829;28;20316;-77
2022/09/26 05:41:59;;;;;;;17.35;6.72;;;;;12.90;95548.00;;;;8311860;28;20219;-78
2022/09/26 05:46:11;;;;;;;11.10;6.25;;;;;13.00;95547.00;;;;8309994;28;20811;-73
2022/09/26 05:50:23;;;;;;;12.60;7.10;;;;;13.00;95549.00;;;;8308894;28;20558;-73
2022/09/26 05:54:33;;;;;;;13.55;6.07;;;;;13.00;95558.00;;;;8300369;28;20224;-73
2022/09/26 05:58:43;;;;;;;16.05;6.70;;;;;13.00;95557.00;;;;8307143;28;20578;-72
2022/09/26 06:03:00;;;;;;;12.30;5.70;;;;;13.00;95553.00;;;;8308627;28;20251;-71
2022/09/26 06:07:09;;;;;;;11.35;5.32;;;;;13.10;95564.00;;;;8300882;28;20244;-73
2022/09/26 06:11:21;;;;;;;8.48;5.30;;;;;13.00;95557.00;;;;8310197;28;20625;-72
2022/09/26 06:15:31;;;;;;;9.27;5.05;;;;;13.00;95561.00;;;;8317148;28;20745;-74
2022/09/26 06:19:36;;;;;;;12.20;5.10;;;;;12.90;95559.00;;;;8297379;28;20629;-73
2022/09/26 06:23:46;;;;;;;13.88;5.10;;;;;12.80;95561.00;;;;8305192;28;20229;-72
2022/09/26 06:27:49;;;;;;;11.23;5.13;;;;;12.90;95568.00;;;;8336348;28;20301;-73
2022/09/26 06:32:02;;;;;;;13.27;5.35;;;;;12.90;95558.00;;;;8342073;28;20262;-73
2022/09/26 06:36:13;;;;;;;7.85;5.30;;;;;13.00;95559.00;;;;8315939;28;20244;-73
2022/09/26 06:40:22;;;;;;;12.13;4.93;;;;;13.00;95552.00;;;;8306232;28;20829;-71
2022/09/26 06:44:25;;;;;;;14.27;5.97;;;;;13.00;95551.00;;;;8315962;28;20275;-73
2022/09/26 06:48:35;;;;;;;5.40;4.30;;;;;13.20;95552.00;;;;8310826;28;20661;-73
2022/09/26 06:52:47;;;;;;;9.30;4.40;;;;;13.50;95551.00;;;;8326161;28;20228;-72
2022/09/26 06:56:56;;;;;;;13.13;5.40;;;;;13.80;95553.00;;;;8337168;28;20225;-73
2022/09/26 07:00:59;;;;;;;7.68;4.72;;;;;14.00;95550.00;;;;8326548;28;20674;-73
2022/09/26 07:05:16;;;;;;;10.05;4.50;;;;;14.30;95551.00;;;;8364393;28;20263;-73
2022/09/26 07:09:21;;;;;;;13.00;4.88;;;;;14.60;95552.00;;;;8339025;28;20256;-72
2022/09/26 07:13:30;;;;;;;8.40;4.45;;;;;14.90;95555.00;;;;8357246;28;20232;-73
2022/09/26 07:17:40;;;;;;;11.52;4.57;;;;;14.80;95561.00;;;;8358304;28;20227;-73
2022/09/26 07:21:50;;;;;;;9.52;4.38;;;;;14.70;95549.00;;;;8348492;28;20590;-73
2022/09/26 07:26:02;;;;;;;13.95;4.57;;;;;14.90;95563.00;;;;8364258;28;20224;-72
2022/09/26 07:30:12;;;;;;;12.13;3.80;;;;;15.20;95569.00;;;;8348450;28;20279;-73
2022/09/26 07:34:23;;;;;;;4.65;3.67;;;;;15.40;95562.00;;;;8350010;28;20298;-73
2022/09/26 07:38:33;;;;;;;8.65;4.30;;;;;15.60;95559.00;;;;8383957;28;20273;-71
2022/09/26 07:42:38;;;;;;;7.38;3.22;;;;;15.40;95552.00;;;;8359591;28;20231;-71
2022/09/26 07:51:35;;;;;;;7.07;3.55;;;;;15.20;95550.00;;;;8329740;28;20225;-71
2022/09/26 07:56:04;;;;;;;5.55;2.78;;;;;15.20;95562.00;;;;8337367;28;20220;-71
2022/09/26 08:00:18;;;;;;;5.00;2.83;;;;;15.50;95567.00;;;;8345161;28;20228;-72
2022/09/26 08:04:35;;;;;;;5.80;2.95;;;;;15.80;95566.00;;;;8331765;28;20594;-72
2022/09/26 08:08:44;;;;;;;3.63;2.47;;;;;16.20;95571.00;;;;8368628;28;20227;-71
2022/09/26 08:12:55;;;;;;;10.30;2.83;;;;;16.50;95566.00;;;;8371107;28;20224;-71
2022/09/26 08:17:07;;;;;;;4.30;2.50;;;;;16.30;95568.00;;;;8353812;28;20237;-71
2022/09/26 08:21:17;;;;;;;6.68;2.13;;;;;16.40;95560.00;;;;8351683;28;20224;-71
2022/09/26 08:25:20;;;;;;;3.95;2.10;;;;;16.60;95560.00;;;;8333945;28;20237;-72
2022/09/26 08:29:31;;;;;;;2.85;2.10;;;;;16.50;95557.00;;;;8333172;28;20233;-71
2022/09/26 08:33:42;;;;;;;4.05;2.10;;;;;16.50;95544.00;;;;8330478;28;20225;-71
2022/09/26 08:37:52;;;;;;;8.15;2.53;;;;;16.50;95544.00;;;;8346255;28;20585;-71
2022/09/26 08:42:19;;;;;;;6.43;2.50;;;;;16.60;95553.00;;;;8348172;28;20224;-71
2022/09/26 08:46:48;;;;;;;8.55;2.15;;;;;16.70;95543.00;;;;8371154;28;20715;-71
2022/09/26 08:51:02;;;;;;;1.88;1.77;;;;;16.80;95533.00;;;;8356588;28;20220;-71
2022/09/26 08:55:15;;;;;;;3.42;1.73;;;;;17.10;95540.00;;;;8346689;28;20236;-71
2022/09/26 08:59:29;;;;;;;4.65;1.83;;;;;17.80;95533.00;;;;8332352;28;20221;-71
2022/09/26 09:03:37;;;;;;;1.75;1.65;;;;;18.30;95531.00;;;;8341209;28;20223;-72
2022/09/26 09:07:58;;;;;;;4.55;1.90;;;;;18.70;95533.00;;;;8325334;28;21702;-71
2022/09/26 09:12:15;;;;;;;8.52;2.10;;;;;19.40;95536.00;;;;8356940;28;20227;-72
2022/09/26 09:16:44;;;;;;;7.10;1.85;;;;;20.40;95538.00;;;;8363508;28;20221;-71
2022/09/26 09:20:58;;;;;;;5.80;2.20;;;;;20.80;95530.00;;;;8382151;28;20216;-71
2022/09/26 09:25:16;;;;;;;4.88;1.95;;;;;20.90;95531.00;;;;8335019;28;20912;-71
2022/09/26 09:29:44;;;;;;;3.88;1.83;;;;;21.10;95527.00;;;;8353154;28;20225;-71
2022/09/26 09:33:59;;;;;;;4.05;2.33;;;;;21.50;95519.00;;;;8336143;28;20251;-72
2022/09/26 09:38:14;;;;;;;4.63;1.65;;;;;20.70;95514.00;;;;8338065;28;20236;-72
2022/09/26 09:42:31;;;;;;;5.18;1.70;;;;;20.30;95502.00;;;;8362701;28;20642;-72
2022/09/26 09:46:43;;;;;;;5.03;1.65;;;;;20.80;95500.00;;;;8357998;28;20701;-73
2022/09/26 09:51:04;;;;;;;4.68;1.58;;;;;20.60;95504.00;;;;8359621;28;20235;-72
2022/09/26 09:55:25;;;;;;;5.68;1.80;;;;;20.10;95504.00;;;;8347025;28;20224;-72
2022/09/26 09:59:58;;;;;;;2.53;1.58;;;;;19.30;95506.00;;;;8353319;28;20247;-70
2022/09/26 10:04:26;;;;;;;1.35;1.30;;;;;18.70;95495.00;;;;8376446;28;20239;-72
2022/09/26 10:08:31;;;;;;;1.95;1.70;;;;;18.40;95486.00;;;;8326868;28;20232;-72
2022/09/26 10:12:42;;;;;;;2.45;1.90;;;;;18.70;95490.00;;;;8345273;28;20225;-72
2022/09/26 10:17:19;;;;;;;5.60;1.63;;;;;18.80;95493.00;;;;8336368;28;20671;-72
2022/09/26 10:21:32;;;;;;;3.22;1.77;;;;;19.30;95476.00;;;;8346053;28;20229;-72
2022/09/26 10:25:35;;;;;;;1.48;1.48;;;;;20.00;95475.00;;;;8356460;28;20208;-72
2022/09/26 10:29:46;;;;;;;3.22;1.40;;;;;20.20;95472.00;;;;8381274;28;20220;-71
2022/09/26 10:33:59;;;;;;;4.53;1.70;;;;;20.00;95474.00;;;;8366882;28;20254;-71
2022/09/26 10:38:20;;;;;;;1.95;1.50;;;;;19.70;95483.00;;;;8382177;28;20224;-74
2022/09/26 10:42:30;;;;;;;2.75;1.70;;;;;19.80;95491.00;;;;8375607;28;20281;-74
2022/09/26 10:46:44;;;;;;;5.13;1.80;;;;;20.10;95472.00;;;;8348381;28;20223;-74
2022/09/26 10:50:51;;;;;;;4.07;1.55;;;;;20.00;95465.00;;;;8370935;28;20685;-73
2022/09/26 10:55:05;;;;;;;5.20;1.80;;;;;20.40;95462.00;;;;8376823;28;20247;-73
2022/09/26 10:59:18;;;;;;;6.10;1.88;;;;;20.20;95463.00;;;;8373236;28;20228;-73
2022/09/26 11:03:24;;;;;;;3.03;1.70;;;;;19.80;95462.00;;;;8367470;28;20282;-73
2022/09/26 11:07:46;;;;;;;1.92;1.50;;;;;19.40;95462.00;;;;8330560;28;20278;-73
2022/09/26 11:11:55;;;;;;;4.00;1.60;;;;;19.10;95441.00;;;;8334166;28;20221;-71
2022/09/26 11:16:09;;;;;;;5.15;1.70;;;;;19.10;95442.00;;;;8337939;28;20232;-72
2022/09/26 11:20:27;;;;;;;2.38;1.58;;;;;19.20;95431.00;;;;8361671;28;20294;-72
2022/09/26 11:24:41;;;;;;;8.40;1.90;;;;;19.50;95423.00;;;;8354056;28;20274;-73
2022/09/26 11:28:53;;;;;;;4.28;1.65;;;;;20.00;95426.00;;;;8373229;28;20561;-73
2022/09/26 11:33:07;;;;;;;4.60;2.45;;;;;20.30;95425.00;;;;8359422;28;20708;-73
2022/09/26 11:37:32;;;;;;;1.60;1.40;;;;;20.40;95416.00;;;;8371850;28;20224;-74
2022/09/26 11:42:02;;;;;;;4.45;1.70;;;;;20.00;95410.00;;;;8361583;28;20243;-74
2022/09/26 11:46:34;;;;;;;4.05;1.70;;;;;19.90;95398.00;;;;8369768;28;20314;-74
2022/09/26 11:50:55;;;;;;;3.40;1.70;;;;;20.10;95399.00;;;;8372727;28;20278;-74
2022/09/26 11:55:17;;;;;;;2.63;1.50;;;;;20.10;95391.00;;;;8368215;28;20220;-74
2022/09/26 11:59:56;;;;;;;5.38;2.25;;;;;20.20;95387.00;;;;8344306;28;20383;-73
2022/09/26 12:04:38;;;;;;;6.68;1.95;;;;;20.20;95388.00;;;;8351584;28;20632;-74
2022/09/26 12:09:00;;;;;;;4.85;1.90;;;;;20.00;95382.00;;;;8355325;28;20578;-74
2022/09/26 12:13:23;;;;;;;3.10;1.60;;;;;19.70;95374.00;;;;8374507;28;20257;-75
2022/09/26 12:17:46;;;;;;;5.22;3.20;;;;;19.50;95367.00;;;;8378740;28;20576;-74
2022/09/26 12:26:38;;;;;;;2.72;2.20;;;;;19.30;95339.00;;;;8374047;28;20657;-74
2022/09/26 12:30:59;;;;;;;3.65;1.60;;;;;19.30;95340.00;;;;8370005;28;20282;-74
2022/09/26 12:35:34;;;;;;;5.03;1.55;;;;;19.50;95333.00;;;;8376983;28;20609;-74
2022/09/26 12:40:00;;;;;;;5.35;1.83;;;;;19.60;95329.00;;;;8373726;28;20235;-74
2022/09/26 12:44:30;;;;;;;2.20;1.45;;;;;19.90;95325.00;;;;8377327;28;20329;-74
2022/09/26 12:48:57;;;;;;;3.58;1.83;;;;;19.90;95319.00;;;;8347074;28;20220;-74
2022/09/26 12:53:36;;;;;;;11.18;3.95;;;;;19.80;95328.00;;;;8373650;28;20759;-74
2022/09/26 12:57:59;;;;;;;3.40;1.77;;;;;19.70;95321.00;;;;8344852;28;20232;-74
2022/09/26 13:02:38;;;;;;;6.05;2.58;;;;;19.70;95313.00;;;;8388810;28;20319;-74
2022/09/26 13:07:11;;;;;;;6.53;3.38;;;;;19.90;95304.00;;;;8376836;28;20284;-74
2022/09/26 13:11:32;;;;;;;2.30;1.80;;;;;19.90;95305.00;;;;8394147;28;20239;-74
2022/09/26 13:16:04;;;;;;;4.57;2.08;;;;;19.60;95295.00;;;;8400267;28;20226;-74
2022/09/26 13:20:17;;;;;;;3.08;2.00;;;;;19.60;95299.00;;;;8375830;28;20243;-73
2022/09/26 13:24:34;;;;;;;3.85;1.80;;;;;19.60;95295.00;;;;8374899;28;20220;-73
2022/09/26 13:28:51;;;;;;;5.07;2.25;;;;;19.40;95284.00;;;;8382306;28;20909;-73
2022/09/26 13:33:20;;;;;;;6.95;2.35;;;;;19.30;95282.00;;;;8379008;28;20267;-73
2022/09/26 13:37:41;;;;;;;1.98;1.88;;;;;19.40;95275.00;;;;8362100;28;20229;-73
2022/09/26 13:42:00;;;;;;;2.35;1.80;;;;;19.50;95272.00;;;;8370088;28;20224;-73
2022/09/26 13:46:25;;;;;;;2.22;2.00;;;;;19.80;95265.00;;;;8376611;28;20228;-73
2022/09/26 13:50:37;;;;;;;4.53;2.10;;;;;19.70;95271.00;;;;8362369;28;20350;-73
2022/09/26 13:55:01;;;;;;;2.60;2.40;;;;;19.40;95256.00;;;;8368295;28;20227;-73
2022/09/26 13:59:34;;;;;;;1.90;1.80;;;;;19.20;95254.00;;;;8367533;28;20250;-74
2022/09/26 14:03:46;;;;;;;3.33;1.90;;;;;19.60;95248.00;;;;8355480;28;20285;-73
2022/09/26 14:12:49;;;;;;;2.00;1.77;;;;;20.00;95236.00;;;;8358903;28;20247;-73
2022/09/26 14:17:02;;;;;;;1.40;1.30;;;;;20.20;95226.00;;;;8336991;28;21203;-74
2022/09/26 14:21:34;;;;;;;3.17;1.75;;;;;20.20;95216.00;;;;8337460;28;20231;-73
2022/09/26 14:26:04;;;;;;;1.65;1.30;;;;;20.30;95205.00;;;;8338434;28;20283;-72
2022/09/26 14:30:26;;;;;;;2.72;1.45;;;;;20.10;95201.00;;;;8342168;28;20232;-72
2022/09/26 14:34:36;;;;;;;1.58;1.48;;;;;20.00;95193.00;;;;8367672;28;20227;-72
2022/09/26 14:38:49;;;;;;;2.08;1.55;;;;;19.70;95182.00;;;;8370397;28;20727;-73
2022/09/26 14:43:36;;;;;;;3.00;1.80;;;;;19.60;95173.00;;;;8365302;28;20212;-74
2022/09/26 14:47:47;;;;;;;9.05;1.55;;;;;19.50;95168.00;;;;8366679;28;20229;-75
2022/09/26 14:52:00;;;;;;;3.70;1.73;;;;;19.40;95172.00;;;;8354973;28;20233;-76
2022/09/26 14:56:08;;;;;;;1.88;1.30;;;;;19.40;95169.00;;;;8353814;28;20324;-75
2022/09/26 15:00:39;;;;;;;1.77;1.67;;;;;19.20;95177.00;;;;8357223;28;20235;-77
2022/09/26 15:05:12;;;;;;;3.08;2.42;;;;;19.20;95171.00;;;;8359699;28;20294;-76
2022/09/26 15:09:27;;;;;;;3.10;1.67;;;;;19.00;95171.00;;;;8348250;28;20231;-76
2022/09/26 15:13:43;;;;;;;6.30;1.58;;;;;18.80;95158.00;;;;8350138;28;20221;-77
2022/09/26 15:17:56;;;;;;;15.80;7.22;;;;;18.90;95168.00;;;;8360201;28;20224;-76
2022/09/26 15:22:12;;;;;;;4.25;2.63;;;;;19.10;95162.00;;;;8346197;28;20233;-76
2022/09/26 15:26:26;;;;;;;2.53;1.60;;;;;19.10;95166.00;;;;8371100;28;20254;-76
2022/09/26 15:30:38;;;;;;;2.10;1.50;;;;;18.80;95149.00;;;;8363769;28;20228;-75
2022/09/26 15:34:48;;;;;;;2.92;1.60;;;;;18.70;95155.00;;;;8365813;28;20224;-75
2022/09/26 15:38:59;;;;;;;1.70;1.60;;;;;18.60;95155.00;;;;8362516;28;20220;-75
2022/09/26 15:43:14;;;;;;;3.40;1.55;;;;;18.60;95152.00;;;;8364145;28;20255;-76
2022/09/26 15:47:40;;;;;;;8.88;6.30;;;;;18.60;95151.00;;;;8363586;28;20278;-75
2022/09/26 15:51:53;;;;;;;385.23;267.33;;;;;18.50;95142.00;;;;8364052;28;20240;-75
2022/09/26 15:56:06;;;;;;;187.10;113.70;;;;;18.30;95139.00;;;;8351262;28;21210;-76
2022/09/26 16:00:17;;;;;;;1000.22;541.38;;;;;18.10;95143.00;;;;8362229;28;20223;-78
2022/09/26 16:04:36;;;;;;;1837.90;823.08;;;;;17.80;95134.00;;;;8368277;28;20290;-75
2022/09/26 16:08:57;;;;;;;504.88;257.55;;;;;17.50;95131.00;;;;8367516;28;20263;-75
2022/09/26 16:13:01;;;;;;;1979.45;865.85;;;;;17.30;95126.00;;;;8365314;28;20236;-75
2022/09/26 16:17:20;;;;;;;899.53;404.33;;;;;17.10;95130.00;;;;8358843;28;20274;-76
2022/09/26 16:21:35;;;;;;;713.90;364.27;;;;;16.80;95130.00;;;;8371641;28;20305;-79
2022/09/26 16:25:55;;;;;;;117.68;57.45;;;;;16.50;95121.00;;;;8354185;28;20216;-79
2022/09/26 16:30:41;;;;;;;12.85;6.82;;;;;16.30;95133.00;;;;8356847;28;20232;-80
2022/09/26 16:35:18;;;;;;;10.32;4.32;;;;;16.00;95131.00;;;;8342157;28;20796;-78
2022/09/26 16:39:40;;;;;;;3.35;2.72;;;;;15.70;95126.00;;;;8345227;28;20236;-79
2022/09/26 16:43:54;;;;;;;78.20;33.75;;;;;15.40;95131.00;;;;8340111;28;20617;-80
2022/09/26 16:47:57;;;;;;;77.68;32.42;;;;;15.10;95130.00;;;;8355654;28;20220;-79
2022/09/26 16:52:29;;;;;;;2.75;2.55;;;;;14.80;95129.00;;;;8340377;28;20263;-80
2022/09/26 16:56:42;;;;;;;4.50;2.97;;;;;14.60;95126.00;;;;8335926;28;20232;-80
2022/09/26 17:05:17;;;;;;;260.98;114.20;;;;;14.20;95116.00;;;;8373350;28;20224;-77
2022/09/26 17:09:22;;;;;;;5.50;3.28;;;;;14.10;95127.00;;;;8372617;28;20292;-73
2022/09/26 17:13:31;;;;;;;6.13;2.72;;;;;14.10;95117.00;;;;8370969;28;20227;-72
2022/09/26 17:17:37;;;;;;;3.53;2.80;;;;;14.10;95115.00;;;;8378310;28;21991;-73
2022/09/26 17:21:40;;;;;;;2.95;2.67;;;;;14.10;95115.00;;;;8381225;28;20234;-72
2022/09/26 17:25:47;;;;;;;3.45;3.15;;;;;14.10;95104.00;;;;8356258;28;20239;-72
2022/09/26 17:29:54;;;;;;;4.13;2.92;;;;;14.10;95099.00;;;;8367914;28;20263;-73
2022/09/26 17:33:57;;;;;;;4.28;3.30;;;;;14.00;95103.00;;;;8368968;28;20369;-73
2022/09/26 17:38:01;;;;;;;5.88;2.15;;;;;13.90;95096.00;;;;8343782;28;20609;-73
2022/09/26 17:42:04;;;;;;;6.85;3.47;;;;;13.80;95103.00;;;;8367658;28;20301;-72
2022/09/26 17:46:12;;;;;;;2.63;2.03;;;;;13.70;95104.00;;;;8332052;28;20235;-73
2022/09/26 17:50:23;;;;;;;5.55;2.50;;;;;13.60;95106.00;;;;8354592;28;20942;-72
2022/09/26 17:54:30;;;;;;;2.80;2.25;;;;;13.60;95100.00;;;;8378366;28;20226;-71
2022/09/26 17:58:35;;;;;;;4.07;2.80;;;;;13.60;95107.00;;;;8364188;28;20725;-70
2022/09/26 18:02:43;;;;;;;3.92;2.78;;;;;13.60;95102.00;;;;8376661;28;20277;-70
2022/09/26 18:06:46;;;;;;;3.72;2.70;;;;;13.60;95102.00;;;;8366095;28;20256;-72
2022/09/26 18:10:53;;;;;;;3.00;2.70;;;;;13.60;95104.00;;;;8371413;28;20288;-71
2022/09/26 18:14:58;;;;;;;3.67;2.63;;;;;13.70;95094.00;;;;8363612;28;20227;-72
2022/09/26 18:19:05;;;;;;;5.10;2.83;;;;;13.70;95097.00;;;;8367380;28;20219;-71
2022/09/26 18:23:16;;;;;;;6.63;3.45;;;;;13.70;95101.00;;;;8393187;28;20230;-73
2022/09/26 18:27:21;;;;;;;5.13;3.38;;;;;13.70;95095.00;;;;8366304;28;20225;-75
2022/09/26 18:31:28;;;;;;;6.75;4.25;;;;;13.70;95091.00;;;;8377449;28;20840;-74
2022/09/26 18:35:33;;;;;;;3.85;3.30;;;;;13.70;95087.00;;;;8383432;28;20658;-73
2022/09/26 18:39:36;;;;;;;6.03;2.92;;;;;13.70;95088.00;;;;8379995;28;20224;-73
2022/09/26 18:43:41;;;;;;;16.80;15.07;;;;;13.60;95094.00;;;;8375477;28;20786;-74
2022/09/26 18:47:45;;;;;;;3.70;3.30;;;;;13.60;95104.00;;;;8371810;28;20234;-73
2022/09/26 18:51:49;;;;;;;6.32;3.22;;;;;13.60;95097.00;;;;8370117;28;20315;-73
2022/09/26 19:00:13;;;;;;;4.72;3.20;;;;;13.60;95096.00;;;;8380988;28;20237;-72
2022/09/26 19:04:19;;;;;;;4.60;3.50;;;;;13.60;95095.00;;;;8406205;28;20232;-74
2022/09/26 19:08:32;;;;;;;6.03;3.70;;;;;13.50;95096.00;;;;8402570;28;20231;-71
2022/09/26 19:12:38;;;;;;;4.53;3.55;;;;;13.40;95081.00;;;;8374931;28;20219;-70
2022/09/26 19:16:42;;;;;;;4.55;3.33;;;;;13.20;95073.00;;;;8403239;28;20231;-70
2022/09/26 19:20:45;;;;;;;5.38;3.42;;;;;13.10;95071.00;;;;8397720;28;20228;-70
2022/09/26 19:24:53;;;;;;;6.07;3.40;;;;;12.90;95076.00;;;;8379909;28;20238;-71
2022/09/26 19:28:59;;;;;;;3.70;3.22;;;;;12.80;95071.00;;;;8390656;28;20249;-69
2022/09/26 19:33:02;;;;;;;6.93;3.05;;;;;12.70;95069.00;;;;8379492;28;20722;-70
2022/09/26 19:37:08;;;;;;;14.18;6.93;;;;;12.60;95076.00;;;;8400006;28;20248;-70
2022/09/26 19:41:13;;;;;;;3.97;2.67;;;;;12.60;95072.00;;;;8374456;28;20676;-70
2022/09/26 19:45:17;;;;;;;7.10;2.25;;;;;12.80;95068.00;;;;8345598;28;20220;-71
2022/09/26 19:49:28;;;;;;;2.47;2.20;;;;;12.90;95081.00;;;;8370853;28;20266;-69
2022/09/26 19:53:34;;;;;;;1.52;1.52;;;;;13.00;95079.00;;;;8378467;28;20219;-70
2022/09/26 19:57:39;;;;;;;4.03;2.13;;;;;13.20;95078.00;;;;8377455;28;20234;-69
2022/09/26 20:01:44;;;;;;;2.05;1.85;;;;;13.20;95080.00;;;;8370869;28;20609;-69
2022/09/26 20:05:49;;;;;;;1.92;1.60;;;;;13.20;95068.00;;;;8376294;28;20695;-70
2022/09/26 20:09:53;;;;;;;1.75;1.50;;;;;13.20;95069.00;;;;8346261;28;20231;-71
2022/09/26 20:18:21;;;;;;;3.65;1.38;;;;;13.10;95054.00;;;;8377964;28;20236;-70
2022/09/26 20:22:24;;;;;;;1.80;1.70;;;;;13.10;95049.00;;;;8371183;28;20687;-69
2022/09/26 20:26:29;;;;;;;3.08;1.88;;;;;13.00;95040.00;;;;8375238;28;21071;-70
2022/09/26 20:30:53;;;;;;;1.77;1.50;;;;;12.80;95030.00;;;;8371569;28;20223;-69
2022/09/26 20:34:59;;;;;;;1.50;1.40;;;;;12.80;95020.00;;;;8340994;28;20306;-71
2022/09/26 20:39:11;;;;;;;6.10;2.08;;;;;12.80;95013.00;;;;8347635;28;20304;-70
2022/09/26 20:43:24;;;;;;;2.47;1.88;;;;;12.80;95002.00;;;;8376198;28;20232;-70
2022/09/26 20:47:29;;;;;;;1.75;1.65;;;;;12.80;94991.00;;;;8370174;28;20218;-70
2022/09/26 20:51:33;;;;;;;2.35;1.95;;;;;12.70;94987.00;;;;8390523;28;20538;-69
2022/09/26 20:55:37;;;;;;;3.38;2.00;;;;;12.60;94986.00;;;;8396710;28;20215;-69
2022/09/26 20:59:46;;;;;;;1.73;1.63;;;;;12.50;94983.00;;;;8396413;28;20224;-69
2022/09/26 21:03:53;;;;;;;2.38;1.65;;;;;12.40;94972.00;;;;8395391;28;20224;-68
2022/09/26 21:07:59;;;;;;;1.92;1.77;;;;;12.40;94960.00;;;;8395780;28;20217;-69
2022/09/26 21:12:02;;;;;;;1.80;1.70;;;;;12.30;94955.00;;;;8395928;28;20565;-69
2022/09/26 21:16:06;;;;;;;1.88;1.70;;;;;12.30;94952.00;;;;8395538;28;20232;-69
2022/09/26 21:20:15;;;;;;;2.60;1.95;;;;;12.30;94941.00;;;;8395170;28;20225;-69
2022/09/26 21:24:21;;;;;;;6.18;2.50;;;;;12.30;94941.00;;;;8394718;28;20221;-69
2022/09/26 21:28:28;;;;;;;4.15;2.22;;;;;12.30;94941.00;;;;8394906;28;20266;-69
2022/09/26 21:32:31;;;;;;;2.63;2.33;;;;;12.30;94928.00;;;;8388507;28;20255;-69